createdAt,value
2022-08-11T00:00:01.532Z,20.85
2022-08-11T00:02:36.276Z,20.81
2022-08-11T00:05:11.058Z,20.79
2022-08-11T00:07:47.043Z,20.76
2022-08-11T00:10:20.724Z,20.73
2022-08-11T00:12:56.355Z,20.68
2022-08-11T00:15:25.979Z,20.66
2022-08-11T00:18:01.166Z,20.64
2022-08-11T00:20:33.478Z,20.63
2022-08-11T00:23:08.807Z,20.58
2022-08-11T00:25:42.211Z,20.58
2022-08-11T00:28:32.789Z,20.53
2022-08-11T00:31:07.227Z,20.52
2022-08-11T00:33:41.120Z,20.50
2022-08-11T00:36:22.066Z,20.47
2022-08-11T00:38:57.205Z,20.45
2022-08-11T00:41:36.207Z,20.43
2022-08-11T00:44:30.232Z,20.41
2022-08-11T00:47:15.685Z,20.37
2022-08-11T00:50:00.045Z,20.35
2022-08-11T00:52:56.746Z,20.31
2022-08-11T00:56:20.765Z,20.28
2022-08-11T00:59:37.911Z,20.23
2022-08-11T01:02:18.885Z,20.20
2022-08-11T01:05:25.145Z,20.18
2022-08-11T01:08:43.802Z,20.14
2022-08-11T01:11:55.628Z,20.11
2022-08-11T01:15:16.881Z,20.08
2022-08-11T01:18:59.466Z,20.03
2022-08-11T01:22:46.507Z,19.98
2022-08-11T01:26:32.110Z,19.92
2022-08-11T01:30:05.071Z,19.89
2022-08-11T01:33:38.097Z,19.86
2022-08-11T01:37:02.348Z,19.82
2022-08-11T01:40:41.959Z,19.77
2022-08-11T01:44:22.961Z,19.73
2022-08-11T01:46:58.636Z,19.70
2022-08-11T01:50:08.683Z,19.70
2022-08-11T01:52:35.066Z,19.68
2022-08-11T01:55:15.406Z,19.66
2022-08-11T01:57:52.374Z,19.66
2022-08-11T02:00:26.061Z,19.64
2022-08-11T02:03:03.285Z,19.65
2022-08-11T02:05:53.317Z,19.61
2022-08-11T02:08:44.845Z,19.57
2022-08-11T02:11:35.589Z,19.55
2022-08-11T02:14:25.126Z,19.48
2022-08-11T02:17:12.433Z,19.47
2022-08-11T02:20:10.911Z,19.45
2022-08-11T02:23:08.701Z,19.42
2022-08-11T02:25:47.663Z,19.38
2022-08-11T02:28:28.951Z,19.38
2022-08-11T02:32:05.139Z,19.36
2022-08-11T02:34:29.814Z,19.31
2022-08-11T02:37:14.330Z,19.29
2022-08-11T02:40:10.454Z,19.24
2022-08-11T02:42:57.453Z,19.21
2022-08-11T02:45:54.485Z,19.17
2022-08-11T02:49:09.537Z,19.15
2022-08-11T02:51:45.848Z,19.10
2022-08-11T02:54:24.817Z,19.09
2022-08-11T02:57:02.427Z,19.08
2022-08-11T02:59:52.335Z,19.04
2022-08-11T03:02:45.971Z,19.01
2022-08-11T03:05:39.595Z,18.98
2022-08-11T03:08:25.665Z,18.94
2022-08-11T03:11:28.858Z,18.92
2022-08-11T03:14:31.610Z,18.87
2022-08-11T03:17:17.249Z,18.85
2022-08-11T03:19:59.959Z,18.84
2022-08-11T03:22:38.581Z,18.83
2022-08-11T03:25:31.525Z,18.81
2022-08-11T03:28:16.732Z,18.77
2022-08-11T03:30:55.695Z,18.75
2022-08-11T03:33:48.618Z,18.73
2022-08-11T03:37:15.550Z,18.70
2022-08-11T03:39:56.605Z,18.68
2022-08-11T03:42:32.986Z,18.68
2022-08-11T03:45:13.324Z,18.67
2022-08-11T03:48:10.604Z,18.63
2022-08-11T03:50:57.348Z,18.61
2022-08-11T03:53:49.521Z,18.57
2022-08-11T03:57:18.935Z,18.56
2022-08-11T04:00:17.604Z,18.54
2022-08-11T04:03:35.927Z,18.50
2022-08-11T04:06:37.670Z,18.49
2022-08-11T04:10:09.013Z,18.47
2022-08-11T04:13:52.682Z,18.44
2022-08-11T04:16:44.541Z,18.43
2022-08-11T04:20:02.021Z,18.42
2022-08-11T04:23:12.369Z,18.41
2022-08-11T04:27:24.135Z,18.40
2022-08-11T04:30:13.179Z,18.40
2022-08-11T04:33:12.643Z,18.43
2022-08-11T04:35:51.303Z,18.44
2022-08-11T04:39:05.538Z,18.45
2022-08-11T04:42:37.677Z,18.47
2022-08-11T04:45:46.920Z,18.48
2022-08-11T04:49:26.168Z,18.51
2022-08-11T04:52:44.305Z,18.53
2022-08-11T04:56:02.555Z,18.57
2022-08-11T04:59:23.102Z,18.62
2022-08-11T05:02:35.667Z,18.68
2022-08-11T05:05:35.075Z,18.73
2022-08-11T05:08:57.471Z,18.78
2022-08-11T05:12:14.403Z,18.83
2022-08-11T05:15:08.743Z,18.88
2022-08-11T05:18:14.396Z,18.94
2022-08-11T05:21:09.171Z,18.98
2022-08-11T05:24:02.832Z,19.03
2022-08-11T05:26:58.219Z,19.06
2022-08-11T05:29:59.122Z,19.12
2022-08-11T05:32:58.051Z,19.18
2022-08-11T05:36:01.317Z,19.26
2022-08-11T05:38:45.881Z,19.35
2022-08-11T05:41:32.874Z,19.44
2022-08-11T05:44:22.541Z,19.55
2022-08-11T05:47:10.293Z,19.66
2022-08-11T05:49:58.082Z,19.75
2022-08-11T05:52:49.036Z,19.83
2022-08-11T05:56:02.176Z,19.94
2022-08-11T05:58:41.748Z,20.04
2022-08-11T06:01:12.086Z,20.15
2022-08-11T06:04:03.829Z,20.27
2022-08-11T06:06:32.532Z,20.40
2022-08-11T06:09:01.811Z,20.54
2022-08-11T06:11:44.136Z,20.66
2022-08-11T06:14:15.490Z,20.77
2022-08-11T06:16:44.901Z,20.88
2022-08-11T06:19:15.403Z,21.00
2022-08-11T06:21:48.004Z,21.12
2022-08-11T06:24:17.698Z,21.26
2022-08-11T06:27:11.835Z,21.38
2022-08-11T06:29:55.111Z,21.50
2022-08-11T06:32:28.725Z,21.64
2022-08-11T06:35:17.269Z,21.79
2022-08-11T06:38:04.386Z,21.93
2022-08-11T06:41:05.159Z,22.05
2022-08-11T06:43:55.333Z,22.22
2022-08-11T06:46:29.662Z,22.36
2022-08-11T06:48:58.306Z,22.51
2022-08-11T06:51:32.578Z,22.64
2022-08-11T06:54:05.532Z,22.81
2022-08-11T07:00:05.085Z,23.18
2022-08-11T07:02:38.463Z,23.34
2022-08-11T07:05:13.524Z,23.51
2022-08-11T07:08:44.473Z,23.68
2022-08-11T07:12:03.247Z,23.83
2022-08-11T07:14:50.650Z,23.97
2022-08-11T07:17:23.688Z,24.10
2022-08-11T07:20:13.473Z,24.28
2022-08-11T07:23:03.984Z,24.45
2022-08-11T07:25:53.279Z,24.61
2022-08-11T07:28:44.040Z,24.75
2022-08-11T07:31:16.934Z,24.93
2022-08-11T07:34:07.673Z,25.05
2022-08-11T07:36:43.895Z,25.22
2022-08-11T07:39:18.318Z,25.31
2022-08-11T07:41:49.450Z,25.42
2022-08-11T07:44:18.918Z,25.53
2022-08-11T07:47:07.241Z,25.64
2022-08-11T07:49:57.762Z,25.78
2022-08-11T07:52:32.428Z,25.91
2022-08-11T07:55:05.616Z,26.01
2022-08-11T07:58:16.249Z,26.13
2022-08-11T08:01:06.855Z,26.21
2022-08-11T08:03:58.191Z,26.30
2022-08-11T08:06:45.286Z,26.37
2022-08-11T08:09:31.669Z,26.46
2022-08-11T08:12:20.619Z,26.57
2022-08-11T08:15:08.927Z,26.70
2022-08-11T08:18:09.629Z,26.85
2022-08-11T08:20:42.453Z,27.06
2022-08-11T08:23:11.145Z,27.25
2022-08-11T08:25:43.758Z,27.42
2022-08-11T08:28:17.105Z,27.54
2022-08-11T08:30:50.458Z,27.66
2022-08-11T08:33:23.170Z,27.75
2022-08-11T08:36:11.756Z,27.92
2022-08-11T08:38:42.636Z,28.08
2022-08-11T08:41:13.285Z,28.24
2022-08-11T08:43:48.911Z,28.43
2022-08-11T08:46:24.646Z,28.58
2022-08-11T08:48:53.844Z,28.79
2022-08-11T08:51:58.681Z,28.90
2022-08-11T08:54:34.085Z,28.99
2022-08-11T08:57:05.154Z,29.12
2022-08-11T08:59:48.033Z,29.21
2022-08-11T09:02:33.820Z,29.31
2022-08-11T09:05:05.445Z,29.38
2022-08-11T09:07:39.510Z,29.52
2022-08-11T09:10:11.519Z,29.64
2022-08-11T09:12:42.772Z,29.71
2022-08-11T09:15:14.991Z,29.82
2022-08-11T09:17:52.982Z,29.88
2022-08-11T09:20:25.454Z,30.00
2022-08-11T09:24:07.074Z,30.07
2022-08-11T09:26:30.458Z,30.18
2022-08-11T09:29:00.838Z,30.27
2022-08-11T09:31:38.678Z,30.38
2022-08-11T09:34:11.107Z,30.52
2022-08-11T09:36:58.872Z,30.61
2022-08-11T09:39:46.898Z,30.76
2022-08-11T09:42:23.387Z,30.89
2022-08-11T09:44:53.833Z,30.99
2022-08-11T09:47:25.432Z,31.18
2022-08-11T09:50:01.358Z,31.30
2022-08-11T09:52:36.305Z,31.43
2022-08-11T09:55:11.196Z,31.53
2022-08-11T09:57:59.696Z,31.62
2022-08-11T10:00:32.239Z,31.62
2022-08-11T10:03:02.713Z,31.66
2022-08-11T10:05:50.930Z,31.67
2022-08-11T10:08:20.767Z,31.74
2022-08-11T10:10:49.394Z,31.81
2022-08-11T10:14:30.421Z,31.89
2022-08-11T10:16:15.646Z,32.04
2022-08-11T10:18:53.419Z,32.08
2022-08-11T10:21:38.241Z,32.19
2022-08-11T10:28:16.654Z,32.44
2022-08-11T10:30:38.247Z,32.60
2022-08-11T10:33:37.707Z,32.74
2022-08-11T10:36:16.732Z,32.85
2022-08-11T10:38:50.397Z,32.95
2022-08-11T10:41:36.774Z,33.04
2022-08-11T10:44:25.471Z,33.15
2022-08-11T10:47:11.862Z,33.16
2022-08-11T10:49:41.215Z,33.20
2022-08-11T10:52:27.324Z,33.27
2022-08-11T10:55:14.837Z,33.28
2022-08-11T10:58:04.847Z,33.31
2022-08-11T11:00:35.040Z,33.38
2022-08-11T11:03:16.780Z,33.44
2022-08-11T11:06:27.887Z,33.49
2022-08-11T11:08:57.651Z,33.51
2022-08-11T11:11:54.108Z,33.54
2022-08-11T11:14:46.040Z,33.60
2022-08-11T11:17:46.040Z,33.63
2022-08-11T11:20:37.372Z,33.64
2022-08-11T11:23:13.459Z,33.74
2022-08-11T11:26:11.302Z,33.71
2022-08-11T11:29:20.358Z,33.76
2022-08-11T11:32:00.691Z,33.82
2022-08-11T11:34:54.020Z,33.88
2022-08-11T11:37:25.095Z,33.96
2022-08-11T11:39:57.498Z,34.04
2022-08-11T11:42:26.779Z,34.13
2022-08-11T11:44:59.435Z,34.21
2022-08-11T11:47:30.187Z,34.29
2022-08-11T11:49:59.122Z,34.34
2022-08-11T11:52:29.093Z,34.40
2022-08-11T11:55:00.480Z,34.38
2022-08-11T11:57:58.808Z,34.46
2022-08-11T12:00:49.020Z,34.48
2022-08-11T12:03:19.084Z,34.54
2022-08-11T12:05:48.296Z,34.60
2022-08-11T12:08:18.114Z,34.60
2022-08-11T12:10:49.506Z,34.57
2022-08-11T12:13:36.709Z,34.62
2022-08-11T12:16:33.573Z,34.58
2022-08-11T12:19:00.217Z,34.56
2022-08-11T12:21:30.407Z,34.58
2022-08-11T12:24:19.882Z,34.61
2022-08-11T12:27:16.959Z,34.64
2022-08-11T12:29:55.413Z,34.62
2022-08-11T12:32:31.204Z,34.61
2022-08-11T12:35:00.267Z,34.64
2022-08-11T12:37:35.582Z,34.67
2022-08-11T12:40:42.494Z,34.69
2022-08-11T12:43:39.515Z,34.59
2022-08-11T12:46:19.359Z,34.48
2022-08-11T12:49:14.758Z,34.41
2022-08-11T12:52:12.552Z,34.38
2022-08-11T12:54:52.037Z,34.32
2022-08-11T12:57:51.270Z,34.28
2022-08-11T13:00:38.382Z,34.31
2022-08-11T13:03:28.498Z,34.28
2022-08-11T13:06:02.819Z,34.25
2022-08-11T13:08:35.549Z,34.27
2022-08-11T13:11:22.605Z,34.27
2022-08-11T13:13:57.487Z,34.27
2022-08-11T13:16:32.073Z,34.26
2022-08-11T13:19:01.898Z,34.30
2022-08-11T13:21:32.466Z,34.30
2022-08-11T13:24:03.635Z,34.31
2022-08-11T13:26:47.869Z,34.30
2022-08-11T13:29:23.493Z,34.29
2022-08-11T13:31:53.365Z,34.31
2022-08-11T13:34:25.245Z,34.23
2022-08-11T13:36:57.322Z,34.19
2022-08-11T13:39:28.884Z,34.14
2022-08-11T13:41:59.825Z,34.12
2022-08-11T13:44:31.051Z,34.10
2022-08-11T13:47:02.387Z,34.09
2022-08-11T13:49:32.434Z,34.09
2022-08-11T13:52:02.878Z,34.16
2022-08-11T13:54:34.864Z,34.12
2022-08-11T13:57:08.242Z,34.12
2022-08-11T13:59:51.815Z,34.13
2022-08-11T14:02:30.888Z,34.13
2022-08-11T14:05:04.696Z,34.12
2022-08-11T14:07:40.550Z,34.09
2022-08-11T14:10:13.930Z,34.05
2022-08-11T14:13:03.206Z,34.03
2022-08-11T14:15:35.899Z,34.02
2022-08-11T14:18:07.533Z,33.98
2022-08-11T14:20:58.951Z,33.90
2022-08-11T14:23:33.801Z,33.84
2022-08-11T14:26:20.394Z,33.76
2022-08-11T14:28:49.820Z,33.66
2022-08-11T14:31:18.800Z,33.57
2022-08-11T14:33:58.647Z,33.48
2022-08-11T14:36:33.983Z,33.25
2022-08-11T14:39:08.847Z,33.13
2022-08-11T14:42:07.461Z,33.03
2022-08-11T14:45:16.937Z,32.93
2022-08-11T14:47:49.791Z,32.83
2022-08-11T14:50:23.246Z,32.84
2022-08-11T14:52:55.137Z,32.82
2022-08-11T14:55:45.566Z,32.85
2022-08-11T14:58:19.219Z,32.83
2022-08-11T15:00:48.850Z,32.79
2022-08-11T15:03:16.519Z,32.81
2022-08-11T15:05:56.659Z,32.83
2022-08-11T15:08:53.133Z,32.80
2022-08-11T15:11:43.025Z,32.72
2022-08-11T15:14:13.548Z,32.72
2022-08-11T15:17:01.458Z,32.74
2022-08-11T15:19:40.194Z,32.75
2022-08-11T15:22:28.488Z,32.79
2022-08-11T15:24:59.432Z,32.72
2022-08-11T15:27:52.861Z,32.70
2022-08-11T15:30:39.391Z,32.69
2022-08-11T15:33:27.859Z,32.66
2022-08-11T15:36:15.818Z,32.60
2022-08-11T15:38:55.411Z,32.55
2022-08-11T15:41:58.346Z,32.52
2022-08-11T15:45:02.772Z,32.45
2022-08-11T15:47:42.876Z,32.38
2022-08-11T15:50:16.868Z,32.33
2022-08-11T15:52:56.442Z,32.22
2022-08-11T15:55:26.194Z,32.19
2022-08-11T15:58:14.347Z,32.18
2022-08-11T16:01:15.979Z,32.16
2022-08-11T16:04:12.650Z,32.16
2022-08-11T16:06:49.252Z,32.15
2022-08-11T16:09:25.168Z,32.11
2022-08-11T16:12:00.388Z,32.08
2022-08-11T16:14:49.413Z,32.06
2022-08-11T16:17:22.232Z,32.05
2022-08-11T16:19:55.310Z,32.07
2022-08-11T16:22:36.145Z,32.06
2022-08-11T16:27:04.890Z,32.03
2022-08-11T16:28:02.500Z,32.03
2022-08-11T16:30:31.968Z,32.05
2022-08-11T16:33:48.755Z,32.05
2022-08-11T16:36:12.910Z,32.03
2022-08-11T16:38:42.763Z,32.01
2022-08-11T16:41:15.229Z,31.98
2022-08-11T16:44:04.634Z,31.96
2022-08-11T16:46:51.272Z,31.93
2022-08-11T16:49:34.807Z,31.85
2022-08-11T16:52:05.481Z,31.84
2022-08-11T16:54:35.061Z,31.83
2022-08-11T16:57:20.845Z,31.77
2022-08-11T16:59:56.090Z,31.72
2022-08-11T17:02:50.670Z,31.67
2022-08-11T17:05:53.940Z,31.58
2022-08-11T17:08:57.132Z,31.49
2022-08-11T17:11:47.898Z,31.38
2022-08-11T17:14:35.019Z,31.30
2022-08-11T17:17:08.921Z,31.23
2022-08-11T17:20:40.019Z,31.16
2022-08-11T17:22:51.514Z,31.11
2022-08-11T17:25:21.698Z,31.05
2022-08-11T17:27:52.225Z,30.97
2022-08-11T17:30:21.284Z,30.90
2022-08-11T17:33:10.113Z,30.84
2022-08-11T17:35:41.565Z,30.75
2022-08-11T17:38:15.954Z,30.69
2022-08-11T17:41:03.154Z,30.61
2022-08-11T17:44:04.545Z,30.58
2022-08-11T17:46:51.993Z,30.48
2022-08-11T17:49:21.759Z,30.40
2022-08-11T17:52:09.637Z,30.35
2022-08-11T17:54:58.612Z,30.27
2022-08-11T17:57:47.929Z,30.18
2022-08-11T18:00:17.319Z,30.12
2022-08-11T18:03:04.882Z,30.04
2022-08-11T18:05:35.343Z,29.99
2022-08-11T18:08:25.295Z,29.94
2022-08-11T18:11:17.493Z,29.87
2022-08-11T18:14:25.403Z,29.76
2022-08-11T18:17:11.402Z,29.68
2022-08-11T18:19:57.471Z,29.59
2022-08-11T18:22:47.171Z,29.48
2022-08-11T18:25:36.256Z,29.40
2022-08-11T18:28:28.144Z,29.32
2022-08-11T18:31:18.739Z,29.21
2022-08-11T18:34:10.799Z,29.13
2022-08-11T18:37:00.121Z,29.06
2022-08-11T18:39:56.241Z,28.95
2022-08-11T18:42:44.161Z,28.86
2022-08-11T18:45:39.972Z,28.77
2022-08-11T18:48:37.289Z,28.65
2022-08-11T18:51:29.677Z,28.52
2022-08-11T18:54:24.600Z,28.42
2022-08-11T18:57:15.653Z,28.33
2022-08-11T19:00:04.509Z,28.20
2022-08-11T19:02:54.643Z,28.12
2022-08-11T19:06:32.115Z,28.05
2022-08-11T19:08:55.612Z,27.93
2022-08-11T19:11:43.849Z,27.87
2022-08-11T19:14:31.987Z,27.82
2022-08-11T19:17:45.044Z,27.76
2022-08-11T19:20:31.623Z,27.68
2022-08-11T19:23:18.605Z,27.62
2022-08-11T19:26:06.341Z,27.57
2022-08-11T19:28:54.518Z,27.49
2022-08-11T19:31:44.733Z,27.44
2022-08-11T19:34:33.650Z,27.36
2022-08-11T19:37:25.114Z,27.28
2022-08-11T19:40:13.972Z,27.23
2022-08-11T19:43:01.882Z,27.12
2022-08-11T19:45:52.772Z,27.02
2022-08-11T19:48:40.860Z,26.90
2022-08-11T19:51:29.236Z,26.80
2022-08-11T19:54:03.093Z,26.70
2022-08-11T19:56:52.010Z,26.61
2022-08-11T19:59:39.567Z,26.51
2022-08-11T20:02:25.561Z,26.43
2022-08-11T20:05:11.785Z,26.35
2022-08-11T20:07:58.354Z,26.24
2022-08-11T20:10:45.239Z,26.15
2022-08-11T20:13:33.905Z,26.06
2022-08-11T20:16:22.002Z,25.96
2022-08-11T20:19:09.976Z,25.85
2022-08-11T20:21:58.105Z,25.73
2022-08-11T20:24:44.029Z,25.62
2022-08-11T20:27:31.491Z,25.54
2022-08-11T20:30:21.697Z,25.45
2022-08-11T20:33:09.278Z,25.36
2022-08-11T20:35:56.786Z,25.28
2022-08-11T20:38:45.075Z,25.19
2022-08-11T20:41:32.159Z,25.11
2022-08-11T20:44:39.432Z,24.99
2022-08-11T20:47:27.705Z,24.89
2022-08-11T20:50:19.328Z,24.83
2022-08-11T20:53:06.728Z,24.76
2022-08-11T20:55:53.945Z,24.67
2022-08-11T20:59:13.285Z,24.57
2022-08-11T21:01:52.075Z,24.48
2022-08-11T21:07:55.638Z,24.31
2022-08-11T21:10:51.459Z,24.24
2022-08-11T21:13:39.304Z,24.19
2022-08-11T21:16:27.726Z,24.13
2022-08-11T21:20:01.343Z,24.05
2022-08-11T21:22:39.738Z,23.98
2022-08-11T21:25:47.069Z,23.90
2022-08-11T21:28:36.906Z,23.82
2022-08-11T21:31:24.998Z,23.77
2022-08-11T21:34:11.419Z,23.70
2022-08-11T21:36:58.938Z,23.62
2022-08-11T21:39:47.085Z,23.57
2022-08-11T21:42:34.569Z,23.50
2022-08-11T21:45:21.972Z,23.43
2022-08-11T21:48:09.132Z,23.36
2022-08-11T21:50:54.736Z,23.31
2022-08-11T21:53:41.252Z,23.25
2022-08-11T21:56:30.665Z,23.18
2022-08-11T21:59:17.776Z,23.13
2022-08-11T22:02:09.115Z,23.08
2022-08-11T22:04:58.844Z,23.00
2022-08-11T22:07:44.814Z,22.96
2022-08-11T22:10:42.393Z,22.91
2022-08-11T22:13:31.556Z,22.83
2022-08-11T22:16:18.007Z,22.76
2022-08-11T22:19:05.066Z,22.70
2022-08-11T22:22:01.645Z,22.67
2022-08-11T22:24:52.058Z,22.61
2022-08-11T22:27:38.695Z,22.56
2022-08-11T22:30:29.757Z,22.52
2022-08-11T22:33:24.374Z,22.45
2022-08-11T22:36:13.819Z,22.40
2022-08-11T22:39:01.498Z,22.36
2022-08-11T22:41:47.305Z,22.32
2022-08-11T22:44:33.283Z,22.28
2022-08-11T22:47:22.814Z,22.22
2022-08-11T22:50:16.846Z,22.15
2022-08-11T22:53:03.791Z,22.10
2022-08-11T22:55:50.214Z,22.05
2022-08-11T22:58:40.150Z,22.02
2022-08-11T23:01:28.001Z,21.98
2022-08-11T23:04:15.341Z,21.93
2022-08-11T23:07:01.358Z,21.89
2022-08-11T23:09:47.336Z,21.85
2022-08-11T23:12:33.777Z,21.82
2022-08-11T23:15:20.426Z,21.78
2022-08-11T23:18:07.007Z,21.75
2022-08-11T23:20:58.100Z,21.70
2022-08-11T23:23:47.467Z,21.66
2022-08-11T23:26:36.919Z,21.62
2022-08-11T23:29:25.355Z,21.59
2022-08-11T23:32:12.459Z,21.54
2022-08-11T23:35:38.431Z,21.49
2022-08-11T23:38:10.740Z,21.46
2022-08-11T23:40:57.226Z,21.41
2022-08-11T23:43:43.758Z,21.37
2022-08-11T23:46:29.727Z,21.33
2022-08-11T23:49:20.633Z,21.30
2022-08-11T23:52:06.991Z,21.24
2022-08-11T23:54:55.918Z,21.22
2022-08-11T23:57:47.792Z,21.17
